Time;durP1;ratioP1;P1;durP2;ratioP2;P2;SDS_P1;SDS_P2;PMS_P1;PMS_P2;Temp;Humidity;BMP_temperature;BMP_pressure;BME280_temperature;BME280_humidity;BME280_pressure;Samples;Min_cycle;Max_cycle;Signal;HPM_P1;HPM_P2
2022/06/27 00:01:20;;;;;;;0.70;0.70;;;20.20;99.90;;;;;;5103734;28;20546;-84
2022/06/27 00:03:47;;;;;;;1.40;1.30;;;20.20;99.90;;;;;;5105170;28;20493;-83
2022/06/27 00:06:13;;;;;;;0.83;0.73;;;20.10;99.90;;;;;;5104138;28;20467;-83
2022/06/27 00:08:41;;;;;;;4.10;1.10;;;20.10;99.90;;;;;;5102465;28;20461;-84
2022/06/27 00:11:10;;;;;;;1.03;1.03;;;20.10;99.90;;;;;;5103790;28;20514;-83
2022/06/27 00:13:37;;;;;;;2.17;1.10;;;20.10;99.90;;;;;;5104611;28;20568;-83
2022/06/27 00:16:05;;;;;;;3.00;1.50;;;20.10;99.90;;;;;;5105492;28;20497;-84
2022/06/27 00:18:32;;;;;;;1.00;1.00;;;20.10;99.90;;;;;;5104091;28;20552;-83
2022/06/27 00:20:59;;;;;;;1.50;0.80;;;20.10;99.90;;;;;;5106425;28;20558;-83
2022/06/27 00:23:26;;;;;;;1.30;1.20;;;20.10;99.90;;;;;;5103181;28;20965;-84
2022/06/27 00:25:53;;;;;;;1.60;0.90;;;20.10;99.90;;;;;;5102505;28;20997;-84
2022/06/27 00:28:22;;;;;;;1.10;1.00;;;20.00;99.90;;;;;;5103827;28;20490;-83
2022/06/27 00:30:49;;;;;;;1.33;1.23;;;20.10;99.90;;;;;;5103694;28;20542;-83
2022/06/27 00:33:16;;;;;;;2.17;1.10;;;20.00;99.90;;;;;;5105587;28;20577;-84
2022/06/27 00:35:43;;;;;;;1.13;1.13;;;19.90;99.90;;;;;;5103324;28;20548;-83
2022/06/27 00:38:10;;;;;;;1.10;1.00;;;19.90;99.90;;;;;;5102539;28;20564;-84
2022/06/27 00:40:36;;;;;;;3.23;1.20;;;19.90;99.90;;;;;;5103274;28;20495;-83
2022/06/27 00:43:03;;;;;;;2.27;0.93;;;19.80;99.90;;;;;;5101240;28;20499;-84
2022/06/27 00:45:32;;;;;;;1.20;1.10;;;19.80;99.90;;;;;;5105110;28;20536;-84
2022/06/27 00:47:59;;;;;;;1.57;1.30;;;19.70;99.90;;;;;;5102867;28;20465;-83
2022/06/27 00:50:26;;;;;;;1.30;1.20;;;19.70;99.90;;;;;;5102238;28;20910;-83
2022/06/27 00:52:53;;;;;;;1.57;1.03;;;19.70;99.90;;;;;;5104631;28;20582;-83
2022/06/27 00:55:20;;;;;;;1.80;1.20;;;19.70;99.90;;;;;;5105814;28;20494;-82
2022/06/27 00:57:47;;;;;;;0.93;0.93;;;19.70;99.90;;;;;;5100301;28;21192;-83
2022/06/27 01:00:15;;;;;;;1.40;1.30;;;19.60;99.90;;;;;;5106695;28;20554;-83
2022/06/27 01:02:44;;;;;;;1.17;0.90;;;19.50;99.90;;;;;;5100471;28;20468;-83
2022/06/27 01:05:12;;;;;;;0.80;0.73;;;19.50;99.90;;;;;;5103867;28;21004;-83
2022/06/27 01:07:40;;;;;;;1.07;1.07;;;19.50;99.90;;;;;;5096605;28;20529;-83
2022/06/27 01:10:09;;;;;;;1.50;1.40;;;19.50;99.90;;;;;;5105659;27;20457;-84
2022/06/27 01:12:39;;;;;;;1.77;1.67;;;19.40;99.90;;;;;;5103502;28;20482;-82
2022/06/27 01:15:07;;;;;;;1.83;0.93;;;19.40;99.90;;;;;;5102352;28;20462;-84
2022/06/27 01:17:35;;;;;;;1.13;0.90;;;19.50;99.90;;;;;;5099897;28;20564;-83
2022/06/27 01:20:04;;;;;;;4.00;1.23;;;19.40;99.90;;;;;;5102320;28;20558;-84
2022/06/27 01:22:32;;;;;;;1.57;1.10;;;19.40;99.90;;;;;;5102938;28;20467;-83
2022/06/27 01:25:00;;;;;;;0.93;0.83;;;19.30;99.90;;;;;;5101365;28;20891;-83
2022/06/27 01:27:27;;;;;;;2.23;0.80;;;19.20;99.90;;;;;;5104103;28;20513;-83
2022/06/27 01:29:54;;;;;;;2.10;1.17;;;19.20;99.90;;;;;;5101878;28;20733;-83
2022/06/27 01:32:21;;;;;;;1.13;0.80;;;19.10;99.90;;;;;;5099629;28;20553;-84
2022/06/27 01:34:47;;;;;;;2.73;1.10;;;19.10;99.90;;;;;;5105685;28;20493;-84
2022/06/27 01:37:14;;;;;;;0.80;0.80;;;19.20;99.90;;;;;;5103594;28;20545;-83
2022/06/27 01:39:43;;;;;;;0.70;0.70;;;19.10;99.90;;;;;;5108419;28;20485;-82
2022/06/27 01:42:10;;;;;;;1.20;1.20;;;19.20;99.90;;;;;;5112195;28;20462;-82
2022/06/27 01:44:37;;;;;;;1.20;1.10;;;19.20;99.90;;;;;;5100779;28;20492;-83
2022/06/27 01:47:08;;;;;;;0.80;0.80;;;19.20;99.90;;;;;;5103781;28;20512;-83
2022/06/27 01:49:37;;;;;;;1.40;1.00;;;19.10;99.90;;;;;;5103081;28;20836;-83
2022/06/27 01:52:05;;;;;;;1.33;1.23;;;19.00;99.90;;;;;;5104184;28;20519;-83
2022/06/27 01:54:33;;;;;;;2.20;1.10;;;19.00;99.90;;;;;;5105446;28;20478;-83
2022/06/27 01:57:02;;;;;;;2.97;1.70;;;19.00;99.90;;;;;;5101862;28;20506;-84
2022/06/27 01:59:31;;;;;;;1.03;0.93;;;19.00;99.90;;;;;;5105108;28;20537;-84
2022/06/27 02:01:59;;;;;;;0.77;0.77;;;19.00;99.90;;;;;;5101318;28;20462;-83
2022/06/27 02:04:27;;;;;;;1.57;1.17;;;19.00;99.90;;;;;;5103625;28;20962;-83
2022/06/27 02:06:55;;;;;;;1.47;1.33;;;19.00;99.90;;;;;;5099582;28;20542;-82
2022/06/27 02:09:22;;;;;;;1.60;1.20;;;19.10;99.90;;;;;;5103717;28;20567;-83
2022/06/27 02:11:51;;;;;;;1.73;1.10;;;19.10;99.90;;;;;;5103727;28;20526;-83
2022/06/27 02:14:20;;;;;;;1.13;0.90;;;19.00;99.90;;;;;;5100929;28;21212;-83
2022/06/27 02:16:48;;;;;;;1.03;1.03;;;19.00;99.90;;;;;;5094819;28;20457;-83
2022/06/27 02:19:18;;;;;;;1.07;0.90;;;19.00;99.90;;;;;;5102844;28;20501;-83
2022/06/27 02:21:46;;;;;;;2.00;1.07;;;18.90;99.90;;;;;;5102374;28;20489;-83
2022/06/27 02:24:14;;;;;;;1.30;1.20;;;18.90;99.90;;;;;;5103646;28;20457;-84
2022/06/27 02:26:42;;;;;;;0.97;0.97;;;18.80;99.90;;;;;;5103110;28;20534;-84
2022/06/27 02:29:09;;;;;;;2.80;1.07;;;18.80;99.90;;;;;;5100929;28;20466;-83
2022/06/27 02:31:45;;;;;;;1.00;1.00;;;18.80;99.90;;;;;;5103407;28;20573;-84
2022/06/27 02:34:13;;;;;;;1.83;1.50;;;18.80;99.90;;;;;;5103121;28;20479;-83
2022/06/27 02:36:41;;;;;;;1.53;1.07;;;18.80;99.90;;;;;;5100794;28;21160;-83
2022/06/27 02:39:11;;;;;;;0.90;0.90;;;18.70;99.90;;;;;;5100191;28;20555;-84
2022/06/27 02:41:40;;;;;;;3.43;1.00;;;18.70;99.90;;;;;;5103531;28;20496;-83
2022/06/27 02:44:08;;;;;;;1.37;1.27;;;18.70;99.90;;;;;;5103706;28;21254;-83
2022/06/27 02:46:38;;;;;;;1.13;1.07;;;18.70;99.90;;;;;;5102663;28;20473;-84
2022/06/27 02:49:06;;;;;;;1.30;1.20;;;18.80;99.90;;;;;;5103483;28;20523;-83
2022/06/27 02:51:40;;;;;;;1.30;1.30;;;18.80;99.90;;;;;;5099611;28;20527;-84
2022/06/27 02:54:11;;;;;;;0.87;0.87;;;18.80;99.90;;;;;;5099055;28;20573;-84
2022/06/27 02:56:47;;;;;;;1.40;1.20;;;18.80;99.90;;;;;;5101038;28;20498;-84
2022/06/27 02:59:18;;;;;;;1.97;1.30;;;18.70;99.90;;;;;;5101139;28;21030;-84
2022/06/27 03:01:49;;;;;;;0.73;0.70;;;18.70;99.90;;;;;;5104037;27;20520;-83
2022/06/27 03:04:16;;;;;;;1.47;1.37;;;18.70;99.90;;;;;;5102075;28;20464;-83
2022/06/27 03:06:46;;;;;;;1.10;1.00;;;18.80;99.90;;;;;;5101422;28;20507;-84
2022/06/27 03:09:13;;;;;;;1.93;1.00;;;18.80;99.90;;;;;;5103328;28;20470;-84
2022/06/27 03:11:40;;;;;;;1.17;1.07;;;18.80;99.90;;;;;;5096691;28;20459;-83
2022/06/27 03:14:07;;;;;;;1.07;0.80;;;18.80;99.90;;;;;;5100012;28;20568;-84
2022/06/27 03:16:36;;;;;;;1.00;1.00;;;18.80;99.90;;;;;;5098844;28;20462;-85
2022/06/27 03:19:05;;;;;;;1.37;0.87;;;18.90;99.90;;;;;;5099777;28;20465;-84
2022/06/27 03:21:31;;;;;;;1.10;1.00;;;18.90;99.90;;;;;;5099856;28;20481;-84
2022/06/27 03:24:00;;;;;;;1.23;1.13;;;19.00;99.90;;;;;;5103798;28;20462;-84
2022/06/27 03:26:27;;;;;;;1.63;0.90;;;18.90;99.90;;;;;;5096385;28;20479;-84
2022/06/27 03:28:54;;;;;;;2.23;2.03;;;18.90;99.90;;;;;;5099915;28;20462;-84
2022/06/27 03:31:22;;;;;;;0.90;0.70;;;19.00;99.90;;;;;;5102838;28;20464;-84
2022/06/27 03:33:49;;;;;;;1.13;0.80;;;19.10;99.90;;;;;;5100993;28;20545;-84
2022/06/27 03:36:18;;;;;;;4.87;1.77;;;19.10;99.90;;;;;;5100731;28;20542;-84
2022/06/27 03:38:45;;;;;;;0.90;0.80;;;19.10;99.90;;;;;;5101196;28;20457;-83
2022/06/27 03:41:12;;;;;;;0.90;0.80;;;19.10;99.90;;;;;;5102062;28;20522;-84
2022/06/27 03:43:38;;;;;;;1.23;1.00;;;19.10;99.90;;;;;;5089508;28;20472;-84
2022/06/27 03:46:05;;;;;;;1.20;0.90;;;19.10;99.90;;;;;;5102993;28;20540;-84
2022/06/27 03:51:18;;;;;;;0.87;0.70;;;19.30;99.90;;;;;;5100725;28;20464;-84
2022/06/27 03:53:45;;;;;;;1.10;0.93;;;19.30;99.90;;;;;;5100028;28;20478;-83
2022/06/27 03:56:12;;;;;;;0.80;0.77;;;19.40;99.90;;;;;;5096262;28;20525;-83
2022/06/27 03:58:39;;;;;;;1.10;1.00;;;19.50;99.90;;;;;;5100399;28;20496;-83
2022/06/27 04:01:06;;;;;;;0.90;0.90;;;19.50;99.90;;;;;;5101956;28;20955;-83
2022/06/27 04:03:33;;;;;;;1.13;0.90;;;19.60;99.90;;;;;;5100257;28;20928;-83
2022/06/27 04:06:00;;;;;;;1.37;1.27;;;19.80;99.90;;;;;;5100059;28;20476;-83
2022/06/27 04:08:28;;;;;;;0.60;0.60;;;19.80;99.90;;;;;;5100199;28;20542;-83
2022/06/27 04:10:55;;;;;;;1.33;1.10;;;19.90;99.90;;;;;;5102545;28;20459;-84
2022/06/27 04:13:24;;;;;;;0.80;0.77;;;20.00;99.90;;;;;;5102790;28;20523;-84
2022/06/27 04:15:51;;;;;;;0.93;0.90;;;20.20;99.90;;;;;;5106994;28;20473;-84
2022/06/27 04:18:18;;;;;;;1.47;1.37;;;20.30;99.90;;;;;;5102066;28;20518;-84
2022/06/27 04:20:45;;;;;;;0.90;0.90;;;20.40;99.90;;;;;;5102996;28;20485;-84
2022/06/27 04:23:12;;;;;;;0.77;0.77;;;20.60;99.90;;;;;;5102362;28;20568;-84
2022/06/27 04:25:42;;;;;;;0.97;0.97;;;20.60;99.90;;;;;;5101371;28;20465;-85
2022/06/27 04:28:09;;;;;;;1.10;0.90;;;20.70;99.90;;;;;;5102676;28;20462;-84
2022/06/27 04:30:36;;;;;;;0.73;0.73;;;21.10;99.90;;;;;;5101990;28;20466;-84
2022/06/27 04:33:03;;;;;;;0.73;0.73;;;21.50;99.90;;;;;;5102296;28;20560;-84
2022/06/27 04:35:30;;;;;;;0.83;0.80;;;21.70;99.90;;;;;;5104432;28;21056;-83
2022/06/27 04:37:57;;;;;;;0.80;0.80;;;21.80;99.90;;;;;;5103111;28;20457;-84
2022/06/27 04:40:25;;;;;;;0.70;0.70;;;21.80;99.90;;;;;;5102125;28;20508;-85
2022/06/27 04:42:53;;;;;;;0.80;0.80;;;21.80;99.90;;;;;;5104233;28;20492;-84
2022/06/27 04:45:20;;;;;;;0.80;0.70;;;21.80;99.90;;;;;;5104215;28;20487;-86
2022/06/27 04:47:47;;;;;;;1.00;0.90;;;21.80;99.90;;;;;;5101019;28;20501;-84
2022/06/27 04:50:17;;;;;;;0.90;0.70;;;21.80;99.90;;;;;;5105530;27;20577;-84
2022/06/27 04:52:45;;;;;;;0.70;0.70;;;21.80;99.90;;;;;;5102541;28;20490;-83
2022/06/27 04:55:13;;;;;;;0.97;0.80;;;21.70;99.90;;;;;;5105697;28;20550;-83
2022/06/27 04:57:43;;;;;;;0.93;0.73;;;21.60;99.90;;;;;;5104936;28;20637;-83
2022/06/27 05:00:14;;;;;;;1.90;1.17;;;21.80;99.90;;;;;;5104834;28;20453;-83
2022/06/27 05:02:41;;;;;;;1.03;1.03;;;21.80;99.90;;;;;;5108242;27;21200;-85
2022/06/27 05:05:09;;;;;;;1.37;1.00;;;21.80;99.90;;;;;;5116431;28;20495;-84
2022/06/27 05:07:36;;;;;;;0.90;0.80;;;21.80;99.90;;;;;;5106196;28;20496;-84
2022/06/27 05:10:04;;;;;;;1.50;1.37;;;21.90;99.90;;;;;;5106373;28;20534;-83
2022/06/27 05:12:31;;;;;;;0.80;0.70;;;21.90;99.90;;;;;;5106693;28;20543;-83
2022/06/27 05:14:58;;;;;;;0.97;0.80;;;22.00;99.90;;;;;;5102324;28;20578;-83
2022/06/27 05:17:27;;;;;;;1.10;1.00;;;22.00;99.90;;;;;;5105021;28;20458;-83
2022/06/27 05:19:54;;;;;;;0.80;0.80;;;22.20;99.90;;;;;;5100379;28;20577;-84
2022/06/27 05:22:21;;;;;;;1.20;0.80;;;22.30;99.90;;;;;;5103639;28;20450;-83
2022/06/27 05:24:49;;;;;;;0.80;0.80;;;22.40;99.90;;;;;;5102745;28;20469;-85
2022/06/27 05:27:17;;;;;;;1.03;0.90;;;22.60;99.90;;;;;;5103610;28;20468;-85
2022/06/27 05:29:45;;;;;;;0.80;0.80;;;22.90;99.90;;;;;;5104167;28;20462;-82
2022/06/27 05:32:13;;;;;;;1.77;1.00;;;23.00;99.40;;;;;;5103583;28;20476;-82
2022/06/27 05:34:41;;;;;;;0.70;0.60;;;23.10;99.20;;;;;;5100681;28;20486;-82
2022/06/27 05:37:09;;;;;;;0.93;0.87;;;23.00;99.70;;;;;;5103055;28;20462;-82
2022/06/27 05:39:36;;;;;;;2.00;0.90;;;23.20;99.00;;;;;;5100598;28;20515;-82
2022/06/27 05:42:04;;;;;;;0.60;0.60;;;23.20;99.00;;;;;;5100374;28;21084;-83
2022/06/27 05:44:31;;;;;;;0.97;0.87;;;23.40;99.30;;;;;;5104474;28;20529;-83
2022/06/27 05:46:59;;;;;;;1.00;1.00;;;23.30;99.50;;;;;;5099015;28;20558;-83
2022/06/27 05:49:26;;;;;;;1.00;0.63;;;23.30;99.00;;;;;;5103358;28;21010;-83
2022/06/27 05:51:55;;;;;;;1.07;0.73;;;23.60;98.80;;;;;;5102478;28;20461;-82
2022/06/27 05:54:22;;;;;;;0.77;0.77;;;23.80;98.30;;;;;;5103186;28;20835;-83
2022/06/27 05:56:50;;;;;;;0.80;0.80;;;23.90;97.70;;;;;;5104762;28;20457;-83
2022/06/27 05:59:18;;;;;;;1.07;0.97;;;24.00;97.50;;;;;;5103823;28;20464;-82
2022/06/27 06:01:46;;;;;;;1.00;0.80;;;23.90;97.90;;;;;;5102476;27;20466;-83
2022/06/27 06:04:14;;;;;;;1.47;0.80;;;24.10;97.60;;;;;;5103881;28;20553;-84
2022/06/27 06:06:43;;;;;;;0.90;0.90;;;24.00;97.40;;;;;;5097233;28;20458;-82
2022/06/27 06:09:13;;;;;;;0.90;0.90;;;23.70;98.60;;;;;;5101895;28;20541;-83
2022/06/27 06:11:40;;;;;;;0.97;0.90;;;23.90;98.60;;;;;;5100026;28;20515;-83
2022/06/27 06:14:08;;;;;;;0.60;0.50;;;24.20;98.20;;;;;;5097858;28;20489;-83
2022/06/27 06:16:36;;;;;;;1.13;1.03;;;24.20;98.10;;;;;;5099883;28;20458;-83
2022/06/27 06:19:04;;;;;;;0.67;0.67;;;24.20;98.30;;;;;;5102645;28;20929;-82
2022/06/27 06:21:31;;;;;;;0.97;0.97;;;24.60;98.60;;;;;;5097144;27;21223;-83
2022/06/27 06:23:58;;;;;;;0.60;0.60;;;24.70;97.90;;;;;;5098366;28;20451;-85
2022/06/27 06:26:28;;;;;;;0.70;0.70;;;24.60;97.10;;;;;;5098150;27;22138;-86
2022/06/27 06:28:55;;;;;;;0.73;0.70;;;24.70;97.80;;;;;;5097147;27;20489;-83
2022/06/27 06:31:23;;;;;;;1.30;1.10;;;24.60;96.90;;;;;;5096349;27;20507;-83
2022/06/27 06:33:51;;;;;;;0.70;0.70;;;24.90;97.30;;;;;;5098518;28;20563;-84
2022/06/27 06:36:19;;;;;;;0.70;0.70;;;24.90;96.20;;;;;;5098299;28;20462;-84
2022/06/27 06:38:47;;;;;;;0.80;0.80;;;25.30;95.10;;;;;;5101045;28;20557;-83
2022/06/27 06:41:15;;;;;;;1.70;0.90;;;25.40;95.90;;;;;;5100494;28;20465;-83
2022/06/27 06:43:44;;;;;;;1.17;1.07;;;25.20;95.30;;;;;;5096599;28;20476;-83
2022/06/27 06:46:11;;;;;;;0.70;0.70;;;25.20;96.70;;;;;;5099406;28;20462;-84
2022/06/27 06:48:40;;;;;;;0.80;0.80;;;25.30;95.40;;;;;;5102472;28;20512;-83
2022/06/27 06:51:08;;;;;;;0.90;0.90;;;25.40;94.70;;;;;;5097959;28;20467;-84
2022/06/27 06:53:36;;;;;;;0.60;0.50;;;25.60;95.10;;;;;;5095270;28;20466;-84
2022/06/27 06:56:04;;;;;;;0.70;0.50;;;25.60;94.70;;;;;;5093297;28;20553;-84
2022/06/27 06:58:31;;;;;;;0.73;0.73;;;25.70;94.60;;;;;;5100160;28;20469;-83
2022/06/27 07:01:01;;;;;;;0.93;0.67;;;25.60;95.40;;;;;;5099429;28;20514;-84
2022/06/27 07:03:28;;;;;;;0.80;0.60;;;25.80;94.80;;;;;;5100097;28;20530;-83
2022/06/27 07:05:56;;;;;;;0.70;0.70;;;25.80;95.10;;;;;;5098948;28;20481;-83
2022/06/27 07:08:24;;;;;;;0.90;0.90;;;25.80;94.90;;;;;;5101038;28;20454;-85
2022/06/27 07:10:51;;;;;;;1.00;0.70;;;26.10;95.00;;;;;;5100944;28;20462;-83
2022/06/27 07:13:19;;;;;;;0.60;0.50;;;26.20;93.60;;;;;;5099542;28;20486;-83
2022/06/27 07:15:46;;;;;;;0.87;0.87;;;26.10;93.70;;;;;;5099505;28;20933;-84
2022/06/27 07:18:14;;;;;;;0.97;0.87;;;26.40;93.70;;;;;;5098523;28;20466;-85
2022/06/27 07:20:41;;;;;;;14.27;1.33;;;26.70;92.20;;;;;;5099380;28;20485;-86
2022/06/27 07:23:09;;;;;;;0.90;0.90;;;26.70;91.80;;;;;;5101462;28;20449;-86
2022/06/27 07:25:36;;;;;;;0.97;0.97;;;26.70;92.60;;;;;;5097626;28;20585;-85
2022/06/27 07:28:04;;;;;;;1.10;1.00;;;26.90;93.00;;;;;;5101994;28;20477;-85
2022/06/27 07:30:31;;;;;;;0.70;0.70;;;27.20;91.10;;;;;;5098710;28;20463;-85
2022/06/27 07:32:58;;;;;;;0.97;0.87;;;27.20;90.60;;;;;;5101268;28;20458;-85
2022/06/27 07:35:28;;;;;;;1.10;1.00;;;27.10;92.40;;;;;;5104760;28;20478;-86
2022/06/27 07:37:55;;;;;;;1.03;1.03;;;27.20;91.10;;;;;;5101772;28;20458;-86
2022/06/27 07:40:24;;;;;;;0.90;0.90;;;27.40;92.80;;;;;;5104017;28;20528;-85
2022/06/27 07:42:53;;;;;;;1.17;1.10;;;27.60;90.20;;;;;;5101961;28;20461;-85
2022/06/27 07:45:20;;;;;;;0.70;0.60;;;27.30;90.70;;;;;;5092726;28;20462;-85
2022/06/27 07:47:47;;;;;;;0.90;0.90;;;27.40;92.40;;;;;;5103227;28;20544;-85
2022/06/27 07:50:36;;;;;;;0.90;0.90;;;27.80;91.30;;;;;;5103294;28;21017;-85
2022/06/27 07:53:14;;;;;;;0.60;0.60;;;28.10;91.10;;;;;;5100642;28;21038;-86
2022/06/27 07:55:42;;;;;;;0.87;0.60;;;27.90;92.40;;;;;;5099158;28;21050;-85
2022/06/27 07:58:13;;;;;;;0.87;0.87;;;27.90;90.30;;;;;;5102985;27;20553;-86
2022/06/27 08:00:41;;;;;;;1.00;0.90;;;27.70;91.10;;;;;;5110812;28;20507;-85
2022/06/27 08:05:52;;;;;;;0.77;0.77;;;27.90;90.00;;;;;;5103776;28;20441;-85
2022/06/27 08:08:21;;;;;;;1.00;0.90;;;27.90;90.50;;;;;;5102396;27;20459;-85
2022/06/27 08:10:48;;;;;;;0.83;0.70;;;28.00;89.70;;;;;;5108110;28;20445;-85
2022/06/27 08:13:15;;;;;;;1.93;1.13;;;27.90;88.10;;;;;;5100783;28;20563;-85
2022/06/27 08:15:42;;;;;;;0.80;0.80;;;28.10;85.10;;;;;;5095840;28;20573;-85
2022/06/27 08:18:09;;;;;;;1.37;0.73;;;28.20;87.50;;;;;;5103485;28;20496;-86
2022/06/27 08:20:37;;;;;;;0.70;0.70;;;28.20;85.90;;;;;;5098077;28;20518;-84
2022/06/27 08:23:04;;;;;;;0.80;0.70;;;28.20;87.40;;;;;;5100436;27;20457;-84
2022/06/27 08:25:33;;;;;;;0.70;0.70;;;28.30;90.20;;;;;;5104783;27;20503;-85
2022/06/27 08:28:00;;;;;;;1.33;1.17;;;28.30;90.90;;;;;;5106677;28;20446;-86
2022/06/27 08:30:27;;;;;;;1.23;0.73;;;28.20;88.40;;;;;;5105358;28;20481;-85
2022/06/27 08:32:56;;;;;;;0.83;0.83;;;28.20;91.40;;;;;;5105071;28;20450;-84
2022/06/27 08:35:23;;;;;;;0.80;0.80;;;28.00;88.70;;;;;;5102408;28;20554;-84
2022/06/27 08:37:50;;;;;;;1.13;0.90;;;28.00;88.20;;;;;;5103280;27;20522;-84
2022/06/27 08:40:18;;;;;;;0.73;0.70;;;28.20;87.20;;;;;;5104903;27;21303;-86
2022/06/27 08:42:47;;;;;;;1.60;1.50;;;28.40;85.60;;;;;;5108545;27;20516;-84
2022/06/27 08:45:17;;;;;;;1.40;1.20;;;28.30;86.30;;;;;;5099148;27;20465;-84
2022/06/27 08:47:44;;;;;;;0.83;0.83;;;28.20;84.80;;;;;;5098499;27;20473;-84
2022/06/27 08:50:12;;;;;;;0.77;0.77;;;28.40;89.10;;;;;;5102089;28;20470;-85
2022/06/27 08:52:40;;;;;;;1.43;1.00;;;28.60;87.90;;;;;;5103386;27;20568;-84
2022/06/27 08:55:08;;;;;;;0.90;0.90;;;28.60;88.90;;;;;;5105109;27;20485;-83
2022/06/27 08:57:39;;;;;;;0.87;0.70;;;28.70;87.80;;;;;;5105735;28;20974;-84
2022/06/27 09:00:10;;;;;;;0.80;0.80;;;28.90;83.00;;;;;;5103999;28;20446;-84
2022/06/27 09:02:42;;;;;;;0.70;0.70;;;29.20;83.40;;;;;;5103805;27;20908;-84
2022/06/27 09:05:17;;;;;;;0.70;0.70;;;28.90;81.30;;;;;;5096237;28;20470;-84
2022/06/27 09:07:50;;;;;;;0.83;0.80;;;29.00;79.90;;;;;;5101737;27;20463;-85
2022/06/27 09:10:25;;;;;;;0.60;0.60;;;29.20;82.20;;;;;;5097997;28;20523;-85
2022/06/27 09:12:57;;;;;;;0.80;0.80;;;29.20;82.70;;;;;;5108840;27;21015;-84
2022/06/27 09:15:29;;;;;;;0.93;0.90;;;29.30;81.10;;;;;;5104038;27;21213;-85
2022/06/27 09:18:01;;;;;;;0.80;0.80;;;29.40;82.50;;;;;;5103353;28;20467;-85
2022/06/27 09:20:46;;;;;;;1.00;0.70;;;29.40;80.50;;;;;;5102173;28;20486;-84
2022/06/27 09:23:41;;;;;;;1.27;1.17;;;30.00;79.60;;;;;;5094752;27;20825;-85
2022/06/27 09:26:12;;;;;;;4.53;3.90;;;30.10;79.70;;;;;;5105236;28;20995;-88
2022/06/27 09:28:45;;;;;;;4.10;1.77;;;30.20;78.40;;;;;;5101413;28;20452;-87
2022/06/27 09:31:30;;;;;;;0.70;0.60;;;30.50;79.60;;;;;;5099711;27;21124;-84
2022/06/27 09:34:03;;;;;;;5.23;1.33;;;30.40;78.10;;;;;;5099057;27;20575;-83
2022/06/27 09:36:31;;;;;;;0.80;0.70;;;30.60;82.30;;;;;;5100870;28;20513;-86
2022/06/27 09:39:01;;;;;;;1.20;1.10;;;30.50;81.60;;;;;;5105016;27;20503;-86
2022/06/27 09:41:30;;;;;;;1.00;1.00;;;31.00;76.80;;;;;;5099787;28;20515;-86
2022/06/27 09:44:03;;;;;;;0.80;0.80;;;30.60;73.30;;;;;;5095900;28;20458;-86
2022/06/27 09:46:35;;;;;;;1.00;0.90;;;30.90;78.50;;;;;;5098511;28;20469;-87
2022/06/27 09:49:05;;;;;;;0.60;0.60;;;30.80;79.10;;;;;;5102646;28;20458;-85
2022/06/27 09:51:34;;;;;;;1.23;1.13;;;30.50;80.40;;;;;;5103559;28;20442;-87
2022/06/27 09:54:08;;;;;;;1.30;0.87;;;30.20;80.40;;;;;;5099573;28;20466;-85
2022/06/27 09:56:38;;;;;;;1.10;1.00;;;30.00;83.30;;;;;;5099512;28;20494;-86
2022/06/27 09:59:06;;;;;;;0.73;0.73;;;30.30;80.40;;;;;;5103650;28;20489;-86
2022/06/27 10:01:35;;;;;;;0.70;0.70;;;30.20;83.40;;;;;;5102944;27;20515;-85
2022/06/27 10:04:04;;;;;;;0.80;0.80;;;30.30;83.00;;;;;;5099994;28;20454;-85
2022/06/27 10:06:31;;;;;;;1.00;1.00;;;30.20;83.80;;;;;;5093161;28;20466;-85
2022/06/27 10:09:01;;;;;;;0.80;0.80;;;30.10;83.30;;;;;;5097608;28;20465;-86
2022/06/27 10:11:28;;;;;;;0.97;0.97;;;30.10;82.70;;;;;;5096494;28;20547;-86
2022/06/27 10:14:19;;;;;;;0.80;0.80;;;30.00;84.00;;;;;;5100157;28;20531;-86
2022/06/27 10:16:55;;;;;;;0.80;0.80;;;30.10;79.10;;;;;;5101578;27;20501;-87
2022/06/27 10:19:23;;;;;;;0.77;0.77;;;30.30;82.40;;;;;;5098948;28;20584;-85
2022/06/27 10:21:51;;;;;;;0.80;0.80;;;30.60;76.00;;;;;;5102014;28;21063;-86
2022/06/27 10:24:35;;;;;;;2.03;0.90;;;31.00;77.90;;;;;;5102150;28;20446;-85
2022/06/27 10:27:08;;;;;;;0.70;0.70;;;31.00;74.80;;;;;;5101300;27;20470;-86
2022/06/27 10:29:44;;;;;;;0.70;0.70;;;30.80;76.90;;;;;;5100660;28;20550;-85
2022/06/27 10:32:41;;;;;;;0.80;0.80;;;30.30;77.30;;;;;;5096037;27;20514;-86
2022/06/27 10:35:13;;;;;;;0.80;0.80;;;30.40;79.10;;;;;;5099023;28;20461;-86
2022/06/27 10:37:42;;;;;;;0.70;0.70;;;30.40;82.60;;;;;;5101907;28;20517;-85
2022/06/27 10:40:52;;;;;;;0.90;0.90;;;30.60;82.10;;;;;;5102584;27;20498;-85
2022/06/27 10:43:42;;;;;;;0.87;0.87;;;30.80;79.60;;;;;;5099555;28;20449;-86
2022/06/27 10:46:43;;;;;;;0.90;0.90;;;30.80;78.00;;;;;;5097996;28;20494;-86
2022/06/27 10:49:25;;;;;;;1.07;1.00;;;30.80;78.80;;;;;;5100330;28;20952;-86
2022/06/27 10:51:53;;;;;;;1.07;1.07;;;31.20;79.60;;;;;;5111959;27;20825;-86
2022/06/27 10:54:20;;;;;;;1.67;1.57;;;31.60;78.60;;;;;;5103437;28;20518;-86
2022/06/27 10:56:50;;;;;;;1.00;1.00;;;31.50;78.80;;;;;;5097422;27;20514;-87
2022/06/27 11:00:04;;;;;;;0.70;0.70;;;31.30;76.90;;;;;;5092256;28;20458;-88
2022/06/27 11:02:33;;;;;;;0.80;0.80;;;31.90;79.00;;;;;;5096673;28;20480;-88
2022/06/27 11:05:02;;;;;;;1.00;1.00;;;31.80;80.40;;;;;;5100966;27;20550;-87
2022/06/27 11:07:30;;;;;;;1.10;1.00;;;31.80;75.40;;;;;;5097295;28;20466;-88
2022/06/27 11:09:57;;;;;;;1.30;0.80;;;31.60;78.10;;;;;;5094883;28;20463;-86
2022/06/27 11:12:30;;;;;;;1.10;1.00;;;31.60;79.40;;;;;;5092097;28;20623;-87
2022/06/27 11:14:59;;;;;;;0.83;0.83;;;31.80;76.30;;;;;;5096770;28;20573;-88
2022/06/27 11:17:38;;;;;;;2.53;0.90;;;32.30;79.70;;;;;;5098673;28;20505;-86
2022/06/27 11:20:26;;;;;;;0.90;0.90;;;32.10;78.30;;;;;;5098266;28;20517;-90
2022/06/27 11:22:57;;;;;;;0.90;0.90;;;32.50;76.60;;;;;;5095130;27;20581;-86
2022/06/27 11:25:27;;;;;;;0.97;0.93;;;32.20;79.30;;;;;;5099855;27;20523;-86
2022/06/27 11:27:56;;;;;;;0.93;0.93;;;31.80;75.80;;;;;;5104983;27;20474;-86
2022/06/27 11:33:17;;;;;;;1.33;1.10;;;31.80;77.20;;;;;;5101583;28;20492;-87
2022/06/27 11:35:47;;;;;;;0.90;0.87;;;32.20;72.00;;;;;;5104577;28;20490;-87
2022/06/27 11:38:24;;;;;;;0.97;0.97;;;32.60;72.00;;;;;;5098843;27;20466;-86
2022/06/27 11:41:08;;;;;;;0.80;0.80;;;32.90;74.90;;;;;;5105697;27;20526;-85
2022/06/27 11:43:53;;;;;;;0.80;0.77;;;32.70;70.10;;;;;;5098164;27;20833;-87
2022/06/27 11:46:30;;;;;;;1.00;0.80;;;32.60;71.50;;;;;;5110112;28;20466;-86
2022/06/27 11:48:59;;;;;;;1.00;1.00;;;32.40;73.80;;;;;;5110804;28;20452;-87
2022/06/27 11:51:31;;;;;;;1.03;0.93;;;32.90;72.60;;;;;;5107274;28;20465;-86
2022/06/27 11:54:01;;;;;;;1.13;1.03;;;33.00;77.40;;;;;;5110935;28;20442;-86
2022/06/27 11:56:30;;;;;;;0.97;0.97;;;32.90;70.80;;;;;;5106895;28;20833;-87
2022/06/27 11:59:01;;;;;;;2.80;1.03;;;33.20;69.40;;;;;;5109281;28;22591;-89
2022/06/27 12:01:28;;;;;;;0.80;0.80;;;33.10;71.50;;;;;;5109400;28;20480;-85
2022/06/27 12:04:27;;;;;;;0.90;0.90;;;32.90;65.90;;;;;;5107176;28;20576;-85
2022/06/27 12:06:56;;;;;;;1.00;0.90;;;32.90;65.00;;;;;;5105720;28;20805;-86
2022/06/27 12:09:25;;;;;;;1.13;1.07;;;32.70;67.70;;;;;;5108537;28;20438;-85
2022/06/27 12:12:01;;;;;;;0.70;0.70;;;32.60;69.60;;;;;;5102311;28;21125;-86
2022/06/27 12:14:29;;;;;;;1.10;1.10;;;33.00;71.50;;;;;;5109148;28;20449;-85
2022/06/27 12:16:58;;;;;;;1.10;1.10;;;33.10;67.30;;;;;;5110627;28;20576;-85
2022/06/27 12:19:26;;;;;;;3.47;0.80;;;32.90;68.80;;;;;;5109946;28;20449;-85
2022/06/27 12:21:55;;;;;;;1.00;1.00;;;33.00;69.30;;;;;;5109879;28;20513;-85
2022/06/27 12:24:23;;;;;;;1.73;1.10;;;33.20;70.00;;;;;;5110738;28;20506;-85
2022/06/27 12:26:50;;;;;;;1.40;1.30;;;33.30;70.60;;;;;;5102720;28;20535;-86
2022/06/27 12:29:18;;;;;;;2.03;0.80;;;32.90;68.80;;;;;;5110234;28;20480;-85
2022/06/27 12:31:45;;;;;;;1.73;0.90;;;33.00;68.70;;;;;;5102744;28;20459;-85
2022/06/27 12:34:13;;;;;;;0.70;0.70;;;33.10;66.80;;;;;;5111796;27;20805;-85
2022/06/27 12:36:40;;;;;;;1.33;0.93;;;33.50;65.90;;;;;;5090627;28;20482;-85
2022/06/27 12:39:09;;;;;;;1.50;1.40;;;33.50;63.80;;;;;;5104427;28;20533;-85
2022/06/27 12:41:37;;;;;;;2.00;1.00;;;33.50;67.40;;;;;;5107343;28;20571;-84
2022/06/27 12:44:05;;;;;;;0.97;0.97;;;33.40;64.90;;;;;;5104299;28;20507;-85
2022/06/27 12:46:33;;;;;;;0.80;0.80;;;33.20;64.10;;;;;;5106490;28;20529;-86
2022/06/27 12:49:00;;;;;;;1.00;1.00;;;33.30;63.50;;;;;;5105600;27;20482;-86
2022/06/27 12:51:29;;;;;;;0.73;0.73;;;33.00;63.30;;;;;;5098159;27;21174;-85
2022/06/27 12:53:56;;;;;;;1.13;1.00;;;32.90;62.90;;;;;;5089864;27;20466;-86
2022/06/27 12:56:26;;;;;;;1.13;0.90;;;33.10;65.20;;;;;;5101267;27;20586;-85
2022/06/27 12:58:53;;;;;;;1.93;1.13;;;33.10;66.70;;;;;;5103594;28;20462;-86
2022/06/27 13:01:20;;;;;;;1.30;1.10;;;33.50;65.40;;;;;;5091175;28;20481;-87
2022/06/27 13:03:47;;;;;;;0.90;0.90;;;33.40;65.70;;;;;;5104919;28;20507;-86
2022/06/27 13:06:14;;;;;;;3.60;1.07;;;33.50;66.60;;;;;;5095490;28;20542;-86
2022/06/27 13:08:42;;;;;;;0.87;0.87;;;33.30;66.10;;;;;;5105257;27;20466;-86